sensor_id;sensor_type;location;lat;lon;timestamp;P1;durP1;ratioP1;P2;durP2;ratioP2
62790;SDS011;48830;53.426;10.300;2023-02-28T00:00:10;7.63;;;3.70;;
62790;SDS011;48830;53.426;10.300;2023-02-28T00:02:38;8.13;;;3.70;;
62790;SDS011;48830;53.426;10.300;2023-02-28T00:05:05;7.90;;;3.73;;
62790;SDS011;48830;53.426;10.300;2023-02-28T00:07:32;9.77;;;4.10;;
62790;SDS011;48830;53.426;10.300;2023-02-28T00:09:57;7.97;;;4.10;;
62790;SDS011;48830;53.426;10.300;2023-02-28T00:12:23;9.57;;;3.93;;
62790;SDS011;48830;53.426;10.300;2023-02-28T00:14:50;8.80;;;3.87;;
62790;SDS011;48830;53.426;10.300;2023-02-28T00:17:16;6.80;;;3.50;;
62790;SDS011;48830;53.426;10.300;2023-02-28T00:19:49;8.27;;;3.80;;
62790;SDS011;48830;53.426;10.300;2023-02-28T00:22:20;6.83;;;3.83;;
62790;SDS011;48830;53.426;10.300;2023-02-28T00:24:46;8.43;;;3.80;;
62790;SDS011;48830;53.426;10.300;2023-02-28T00:27:12;7.57;;;3.53;;
62790;SDS011;48830;53.426;10.300;2023-02-28T00:29:39;6.47;;;3.93;;
62790;SDS011;48830;53.426;10.300;2023-02-28T00:32:04;8.63;;;3.80;;
62790;SDS011;48830;53.426;10.300;2023-02-28T00:34:30;7.53;;;3.83;;
62790;SDS011;48830;53.426;10.300;2023-02-28T00:36:56;7.20;;;4.07;;
62790;SDS011;48830;53.426;10.300;2023-02-28T00:39:21;7.77;;;4.03;;
62790;SDS011;48830;53.426;10.300;2023-02-28T00:41:47;10.93;;;4.27;;
62790;SDS011;48830;53.426;10.300;2023-02-28T00:44:13;7.93;;;4.23;;
62790;SDS011;48830;53.426;10.300;2023-02-28T00:46:38;8.27;;;4.00;;
62790;SDS011;48830;53.426;10.300;2023-02-28T00:49:04;9.50;;;4.10;;
62790;SDS011;48830;53.426;10.300;2023-02-28T00:51:29;8.30;;;4.03;;
62790;SDS011;48830;53.426;10.300;2023-02-28T00:53:56;7.97;;;3.80;;
62790;SDS011;48830;53.426;10.300;2023-02-28T00:56:22;10.83;;;4.93;;
62790;SDS011;48830;53.426;10.300;2023-02-28T00:58:48;8.07;;;4.30;;
62790;SDS011;48830;53.426;10.300;2023-02-28T01:01:13;7.00;;;3.80;;
62790;SDS011;48830;53.426;10.300;2023-02-28T01:03:39;10.80;;;4.43;;
62790;SDS011;48830;53.426;10.300;2023-02-28T01:06:05;7.23;;;4.27;;
62790;SDS011;48830;53.426;10.300;2023-02-28T01:08:30;11.87;;;4.20;;
62790;SDS011;48830;53.426;10.300;2023-02-28T01:10:56;7.17;;;3.77;;
62790;SDS011;48830;53.426;10.300;2023-02-28T01:13:22;7.87;;;4.03;;
62790;SDS011;48830;53.426;10.300;2023-02-28T01:15:52;7.50;;;3.93;;
62790;SDS011;48830;53.426;10.300;2023-02-28T01:18:20;7.40;;;3.90;;
62790;SDS011;48830;53.426;10.300;2023-02-28T01:20:46;8.87;;;4.43;;
62790;SDS011;48830;53.426;10.300;2023-02-28T01:23:12;8.30;;;4.13;;
62790;SDS011;48830;53.426;10.300;2023-02-28T01:25:37;7.17;;;4.10;;
62790;SDS011;48830;53.426;10.300;2023-02-28T01:28:04;6.90;;;3.70;;
62790;SDS011;48830;53.426;10.300;2023-02-28T01:30:31;7.57;;;3.57;;
62790;SDS011;48830;53.426;10.300;2023-02-28T01:32:57;9.13;;;4.10;;
62790;SDS011;48830;53.426;10.300;2023-02-28T01:35:24;8.00;;;3.80;;
62790;SDS011;48830;53.426;10.300;2023-02-28T01:37:49;7.57;;;3.53;;
62790;SDS011;48830;53.426;10.300;2023-02-28T01:40:15;8.60;;;4.50;;
62790;SDS011;48830;53.426;10.300;2023-02-28T01:42:40;8.47;;;4.63;;
62790;SDS011;48830;53.426;10.300;2023-02-28T01:47:51;8.53;;;4.20;;
62790;SDS011;48830;53.426;10.300;2023-02-28T01:50:20;9.07;;;4.27;;
62790;SDS011;48830;53.426;10.300;2023-02-28T01:52:50;9.37;;;4.83;;
62790;SDS011;48830;53.426;10.300;2023-02-28T01:55:18;9.67;;;4.07;;
62790;SDS011;48830;53.426;10.300;2023-02-28T01:57:51;9.23;;;4.40;;
62790;SDS011;48830;53.426;10.300;2023-02-28T02:00:20;9.13;;;4.57;;
62790;SDS011;48830;53.426;10.300;2023-02-28T02:02:49;9.93;;;4.50;;
62790;SDS011;48830;53.426;10.300;2023-02-28T02:05:19;10.00;;;4.53;;
62790;SDS011;48830;53.426;10.300;2023-02-28T02:07:48;8.43;;;4.80;;
62790;SDS011;48830;53.426;10.300;2023-02-28T02:10:19;8.97;;;4.80;;
62790;SDS011;48830;53.426;10.300;2023-02-28T02:13:08;7.40;;;4.20;;
62790;SDS011;48830;53.426;10.300;2023-02-28T02:18:31;9.43;;;4.90;;
62790;SDS011;48830;53.426;10.300;2023-02-28T02:34:43;9.40;;;5.70;;
62790;SDS011;48830;53.426;10.300;2023-02-28T02:37:29;11.03;;;5.20;;
62790;SDS011;48830;53.426;10.300;2023-02-28T02:45:14;10.43;;;5.37;;
62790;SDS011;48830;53.426;10.300;2023-02-28T02:48:01;10.43;;;5.00;;
62790;SDS011;48830;53.426;10.300;2023-02-28T02:50:38;9.43;;;5.27;;
62790;SDS011;48830;53.426;10.300;2023-02-28T02:53:09;10.30;;;5.33;;
62790;SDS011;48830;53.426;10.300;2023-02-28T02:55:39;9.67;;;5.27;;
62790;SDS011;48830;53.426;10.300;2023-02-28T02:58:10;10.27;;;5.30;;
62790;SDS011;48830;53.426;10.300;2023-02-28T03:00:42;9.60;;;5.37;;
62790;SDS011;48830;53.426;10.300;2023-02-28T03:03:14;9.57;;;4.87;;
62790;SDS011;48830;53.426;10.300;2023-02-28T03:05:46;10.10;;;5.20;;
62790;SDS011;48830;53.426;10.300;2023-02-28T03:08:15;8.93;;;4.90;;
62790;SDS011;48830;53.426;10.300;2023-02-28T03:10:42;8.43;;;4.83;;
62790;SDS011;48830;53.426;10.300;2023-02-28T03:15:58;11.67;;;5.37;;
62790;SDS011;48830;53.426;10.300;2023-02-28T03:21:19;10.33;;;5.40;;
62790;SDS011;48830;53.426;10.300;2023-02-28T03:24:11;9.67;;;4.80;;
62790;SDS011;48830;53.426;10.300;2023-02-28T03:26:47;10.87;;;5.47;;
62790;SDS011;48830;53.426;10.300;2023-02-28T03:29:22;9.57;;;4.67;;
62790;SDS011;48830;53.426;10.300;2023-02-28T03:31:54;9.10;;;4.87;;
62790;SDS011;48830;53.426;10.300;2023-02-28T03:34:27;8.33;;;4.67;;
62790;SDS011;48830;53.426;10.300;2023-02-28T03:37:04;10.53;;;5.47;;
62790;SDS011;48830;53.426;10.300;2023-02-28T03:39:39;11.33;;;4.93;;
62790;SDS011;48830;53.426;10.300;2023-02-28T03:42:11;8.93;;;4.93;;
62790;SDS011;48830;53.426;10.300;2023-02-28T03:44:42;9.97;;;4.37;;
62790;SDS011;48830;53.426;10.300;2023-02-28T03:47:11;10.07;;;5.33;;
62790;SDS011;48830;53.426;10.300;2023-02-28T03:52:22;8.23;;;4.77;;
62790;SDS011;48830;53.426;10.300;2023-02-28T03:54:52;8.23;;;4.80;;
62790;SDS011;48830;53.426;10.300;2023-02-28T04:03:05;9.60;;;5.03;;
62790;SDS011;48830;53.426;10.300;2023-02-28T04:05:31;8.37;;;4.53;;
62790;SDS011;48830;53.426;10.300;2023-02-28T04:08:04;8.63;;;5.00;;
62790;SDS011;48830;53.426;10.300;2023-02-28T04:10:31;12.50;;;5.03;;
62790;SDS011;48830;53.426;10.300;2023-02-28T04:12:56;8.43;;;4.77;;
62790;SDS011;48830;53.426;10.300;2023-02-28T04:15:22;8.20;;;4.83;;
62790;SDS011;48830;53.426;10.300;2023-02-28T04:17:48;10.97;;;5.07;;
62790;SDS011;48830;53.426;10.300;2023-02-28T04:20:13;8.00;;;4.40;;
62790;SDS011;48830;53.426;10.300;2023-02-28T04:22:39;9.77;;;4.83;;
62790;SDS011;48830;53.426;10.300;2023-02-28T04:25:04;8.83;;;5.40;;
62790;SDS011;48830;53.426;10.300;2023-02-28T04:27:30;9.50;;;4.70;;
62790;SDS011;48830;53.426;10.300;2023-02-28T04:29:56;10.67;;;5.13;;
62790;SDS011;48830;53.426;10.300;2023-02-28T04:32:21;9.33;;;4.87;;
62790;SDS011;48830;53.426;10.300;2023-02-28T04:34:46;7.80;;;4.57;;
62790;SDS011;48830;53.426;10.300;2023-02-28T04:37:12;8.00;;;4.77;;
62790;SDS011;48830;53.426;10.300;2023-02-28T04:39:38;7.97;;;5.00;;
62790;SDS011;48830;53.426;10.300;2023-02-28T04:42:04;10.10;;;5.60;;
62790;SDS011;48830;53.426;10.300;2023-02-28T04:44:30;12.10;;;5.07;;
62790;SDS011;48830;53.426;10.300;2023-02-28T04:46:55;9.83;;;5.37;;
62790;SDS011;48830;53.426;10.300;2023-02-28T04:49:21;8.47;;;5.20;;
62790;SDS011;48830;53.426;10.300;2023-02-28T04:51:46;9.50;;;5.30;;
62790;SDS011;48830;53.426;10.300;2023-02-28T04:54:12;11.20;;;5.33;;
62790;SDS011;48830;53.426;10.300;2023-02-28T04:56:38;10.33;;;5.23;;
62790;SDS011;48830;53.426;10.300;2023-02-28T04:59:03;10.47;;;5.30;;
62790;SDS011;48830;53.426;10.300;2023-02-28T05:01:32;13.17;;;5.50;;
62790;SDS011;48830;53.426;10.300;2023-02-28T05:04:00;13.00;;;5.67;;
62790;SDS011;48830;53.426;10.300;2023-02-28T05:06:29;9.33;;;5.40;;
62790;SDS011;48830;53.426;10.300;2023-02-28T05:08:56;11.13;;;4.90;;
62790;SDS011;48830;53.426;10.300;2023-02-28T05:11:26;9.83;;;5.27;;
62790;SDS011;48830;53.426;10.300;2023-02-28T05:13:59;8.87;;;5.47;;
62790;SDS011;48830;53.426;10.300;2023-02-28T05:16:29;11.47;;;6.30;;
62790;SDS011;48830;53.426;10.300;2023-02-28T05:18:54;9.10;;;5.53;;
62790;SDS011;48830;53.426;10.300;2023-02-28T05:21:33;10.97;;;5.90;;
62790;SDS011;48830;53.426;10.300;2023-02-28T05:24:02;9.73;;;5.13;;
62790;SDS011;48830;53.426;10.300;2023-02-28T05:26:30;10.63;;;5.90;;
62790;SDS011;48830;53.426;10.300;2023-02-28T05:28:58;10.73;;;5.70;;
62790;SDS011;48830;53.426;10.300;2023-02-28T05:31:24;10.13;;;6.00;;
62790;SDS011;48830;53.426;10.300;2023-02-28T05:33:49;13.47;;;6.10;;
62790;SDS011;48830;53.426;10.300;2023-02-28T05:36:15;11.17;;;6.23;;
62790;SDS011;48830;53.426;10.300;2023-02-28T05:38:40;10.30;;;6.13;;
62790;SDS011;48830;53.426;10.300;2023-02-28T05:41:07;11.83;;;6.47;;
62790;SDS011;48830;53.426;10.300;2023-02-28T05:43:33;13.70;;;6.40;;
62790;SDS011;48830;53.426;10.300;2023-02-28T05:45:59;10.60;;;6.00;;
62790;SDS011;48830;53.426;10.300;2023-02-28T05:48:27;12.23;;;6.10;;
62790;SDS011;48830;53.426;10.300;2023-02-28T05:50:53;10.00;;;5.73;;
62790;SDS011;48830;53.426;10.300;2023-02-28T05:53:18;11.13;;;5.87;;
62790;SDS011;48830;53.426;10.300;2023-02-28T05:55:44;9.47;;;5.93;;
62790;SDS011;48830;53.426;10.300;2023-02-28T05:58:09;10.33;;;5.90;;
62790;SDS011;48830;53.426;10.300;2023-02-28T06:00:34;9.50;;;5.83;;
62790;SDS011;48830;53.426;10.300;2023-02-28T06:03:00;10.00;;;6.17;;
62790;SDS011;48830;53.426;10.300;2023-02-28T06:05:27;11.20;;;6.13;;
62790;SDS011;48830;53.426;10.300;2023-02-28T06:07:52;11.40;;;5.90;;
62790;SDS011;48830;53.426;10.300;2023-02-28T06:10:18;9.83;;;5.20;;
62790;SDS011;48830;53.426;10.300;2023-02-28T06:12:44;12.50;;;5.77;;
62790;SDS011;48830;53.426;10.300;2023-02-28T06:15:11;12.43;;;5.40;;
62790;SDS011;48830;53.426;10.300;2023-02-28T06:17:40;9.07;;;5.23;;
62790;SDS011;48830;53.426;10.300;2023-02-28T06:20:07;11.93;;;5.93;;
62790;SDS011;48830;53.426;10.300;2023-02-28T06:22:35;13.07;;;5.60;;
62790;SDS011;48830;53.426;10.300;2023-02-28T06:25:01;9.13;;;5.60;;
62790;SDS011;48830;53.426;10.300;2023-02-28T06:27:26;8.20;;;5.13;;
62790;SDS011;48830;53.426;10.300;2023-02-28T06:29:54;9.60;;;5.90;;
62790;SDS011;48830;53.426;10.300;2023-02-28T06:32:23;10.00;;;5.50;;
62790;SDS011;48830;53.426;10.300;2023-02-28T06:34:48;9.07;;;5.67;;
62790;SDS011;48830;53.426;10.300;2023-02-28T06:37:15;9.63;;;5.87;;
62790;SDS011;48830;53.426;10.300;2023-02-28T06:39:41;8.80;;;5.63;;
62790;SDS011;48830;53.426;10.300;2023-02-28T06:42:06;10.63;;;5.63;;
62790;SDS011;48830;53.426;10.300;2023-02-28T06:44:32;12.90;;;5.60;;
62790;SDS011;48830;53.426;10.300;2023-02-28T06:47:03;10.90;;;5.37;;
62790;SDS011;48830;53.426;10.300;2023-02-28T06:49:30;9.77;;;5.67;;
62790;SDS011;48830;53.426;10.300;2023-02-28T06:51:57;9.53;;;5.37;;
62790;SDS011;48830;53.426;10.300;2023-02-28T06:54:23;12.20;;;5.97;;
62790;SDS011;48830;53.426;10.300;2023-02-28T06:56:48;13.33;;;6.10;;
62790;SDS011;48830;53.426;10.300;2023-02-28T06:59:14;9.43;;;5.50;;
62790;SDS011;48830;53.426;10.300;2023-02-28T07:01:40;10.27;;;5.17;;
62790;SDS011;48830;53.426;10.300;2023-02-28T07:04:05;11.73;;;6.50;;
62790;SDS011;48830;53.426;10.300;2023-02-28T07:06:32;14.53;;;7.17;;
62790;SDS011;48830;53.426;10.300;2023-02-28T07:08:58;14.43;;;7.30;;
62790;SDS011;48830;53.426;10.300;2023-02-28T07:11:26;12.00;;;6.97;;
62790;SDS011;48830;53.426;10.300;2023-02-28T07:13:53;11.70;;;7.40;;
62790;SDS011;48830;53.426;10.300;2023-02-28T07:16:20;13.43;;;7.43;;
62790;SDS011;48830;53.426;10.300;2023-02-28T07:18:46;15.63;;;8.20;;
62790;SDS011;48830;53.426;10.300;2023-02-28T07:21:11;11.73;;;7.63;;
62790;SDS011;48830;53.426;10.300;2023-02-28T07:23:37;12.90;;;6.77;;
62790;SDS011;48830;53.426;10.300;2023-02-28T07:26:04;11.80;;;6.83;;
62790;SDS011;48830;53.426;10.300;2023-02-28T07:28:30;11.63;;;7.40;;
62790;SDS011;48830;53.426;10.300;2023-02-28T07:30:56;12.80;;;6.50;;
62790;SDS011;48830;53.426;10.300;2023-02-28T07:33:21;12.53;;;6.57;;
62790;SDS011;48830;53.426;10.300;2023-02-28T07:35:47;11.07;;;6.80;;
62790;SDS011;48830;53.426;10.300;2023-02-28T07:38:12;12.80;;;6.63;;
62790;SDS011;48830;53.426;10.300;2023-02-28T07:40:39;10.37;;;6.40;;
62790;SDS011;48830;53.426;10.300;2023-02-28T07:43:04;11.43;;;6.23;;
62790;SDS011;48830;53.426;10.300;2023-02-28T07:45:31;13.00;;;6.80;;
62790;SDS011;48830;53.426;10.300;2023-02-28T07:47:59;10.20;;;6.30;;
62790;SDS011;48830;53.426;10.300;2023-02-28T07:50:25;10.90;;;6.97;;
62790;SDS011;48830;53.426;10.300;2023-02-28T07:52:52;11.50;;;6.70;;
62790;SDS011;48830;53.426;10.300;2023-02-28T07:55:18;12.97;;;6.57;;
62790;SDS011;48830;53.426;10.300;2023-02-28T07:57:43;11.47;;;6.30;;
62790;SDS011;48830;53.426;10.300;2023-02-28T08:00:10;12.47;;;6.70;;
62790;SDS011;48830;53.426;10.300;2023-02-28T08:02:39;10.83;;;6.27;;
62790;SDS011;48830;53.426;10.300;2023-02-28T08:05:05;10.10;;;6.20;;
62790;SDS011;48830;53.426;10.300;2023-02-28T08:07:31;11.73;;;6.60;;
62790;SDS011;48830;53.426;10.300;2023-02-28T08:09:57;10.33;;;5.57;;
62790;SDS011;48830;53.426;10.300;2023-02-28T08:12:22;8.50;;;5.47;;
62790;SDS011;48830;53.426;10.300;2023-02-28T08:14:48;10.37;;;5.90;;
62790;SDS011;48830;53.426;10.300;2023-02-28T08:17:13;9.03;;;5.90;;
62790;SDS011;48830;53.426;10.300;2023-02-28T08:19:39;8.63;;;5.67;;
62790;SDS011;48830;53.426;10.300;2023-02-28T08:22:04;10.77;;;5.73;;
62790;SDS011;48830;53.426;10.300;2023-02-28T08:24:30;9.60;;;5.93;;
62790;SDS011;48830;53.426;10.300;2023-02-28T08:26:55;8.90;;;5.43;;
62790;SDS011;48830;53.426;10.300;2023-02-28T08:29:21;8.20;;;5.00;;
62790;SDS011;48830;53.426;10.300;2023-02-28T08:31:46;11.33;;;5.17;;
62790;SDS011;48830;53.426;10.300;2023-02-28T08:34:13;9.93;;;5.07;;
62790;SDS011;48830;53.426;10.300;2023-02-28T08:36:40;7.93;;;4.77;;
62790;SDS011;48830;53.426;10.300;2023-02-28T08:39:06;8.63;;;4.83;;
62790;SDS011;48830;53.426;10.300;2023-02-28T08:41:32;9.40;;;5.27;;
62790;SDS011;48830;53.426;10.300;2023-02-28T08:43:58;9.03;;;4.70;;
62790;SDS011;48830;53.426;10.300;2023-02-28T08:46:23;9.50;;;5.60;;
62790;SDS011;48830;53.426;10.300;2023-02-28T08:48:53;9.10;;;5.07;;
62790;SDS011;48830;53.426;10.300;2023-02-28T08:51:20;8.20;;;4.90;;
62790;SDS011;48830;53.426;10.300;2023-02-28T08:53:54;10.23;;;4.50;;
62790;SDS011;48830;53.426;10.300;2023-02-28T08:56:22;8.93;;;4.40;;
62790;SDS011;48830;53.426;10.300;2023-02-28T08:58:49;9.63;;;4.43;;
62790;SDS011;48830;53.426;10.300;2023-02-28T09:03:41;8.07;;;4.03;;
62790;SDS011;48830;53.426;10.300;2023-02-28T09:06:07;7.13;;;4.10;;
62790;SDS011;48830;53.426;10.300;2023-02-28T09:08:34;7.13;;;4.23;;
62790;SDS011;48830;53.426;10.300;2023-02-28T09:11:00;7.20;;;4.57;;
62790;SDS011;48830;53.426;10.300;2023-02-28T09:13:26;8.95;;;4.40;;
62790;SDS011;48830;53.426;10.300;2023-02-28T09:15:53;7.47;;;4.50;;
62790;SDS011;48830;53.426;10.300;2023-02-28T09:18:19;6.50;;;3.97;;
62790;SDS011;48830;53.426;10.300;2023-02-28T09:20:45;7.63;;;4.07;;
62790;SDS011;48830;53.426;10.300;2023-02-28T09:23:11;7.90;;;4.35;;
62790;SDS011;48830;53.426;10.300;2023-02-28T09:25:38;7.43;;;4.28;;
62790;SDS011;48830;53.426;10.300;2023-02-28T09:28:11;7.38;;;3.83;;
62790;SDS011;48830;53.426;10.300;2023-02-28T09:30:36;7.55;;;4.13;;
62790;SDS011;48830;53.426;10.300;2023-02-28T09:33:02;7.25;;;4.07;;
62790;SDS011;48830;53.426;10.300;2023-02-28T09:35:28;6.28;;;3.65;;
62790;SDS011;48830;53.426;10.300;2023-02-28T09:37:55;7.75;;;4.20;;
62790;SDS011;48830;53.426;10.300;2023-02-28T09:40:23;5.85;;;3.95;;
62790;SDS011;48830;53.426;10.300;2023-02-28T09:42:52;6.75;;;3.70;;
62790;SDS011;48830;53.426;10.300;2023-02-28T09:45:30;6.75;;;3.83;;
62790;SDS011;48830;53.426;10.300;2023-02-28T09:48:01;7.97;;;3.47;;
62790;SDS011;48830;53.426;10.300;2023-02-28T09:53:15;5.82;;;3.28;;
62790;SDS011;48830;53.426;10.300;2023-02-28T09:56:07;5.88;;;3.47;;
62790;SDS011;48830;53.426;10.300;2023-02-28T09:58:50;6.05;;;3.35;;
62790;SDS011;48830;53.426;10.300;2023-02-28T10:06:49;5.57;;;2.67;;
62790;SDS011;48830;53.426;10.300;2023-02-28T10:09:25;3.63;;;2.35;;
62790;SDS011;48830;53.426;10.300;2023-02-28T10:12:04;5.13;;;2.60;;
62790;SDS011;48830;53.426;10.300;2023-02-28T10:14:32;4.43;;;2.30;;
62790;SDS011;48830;53.426;10.300;2023-02-28T10:17:01;4.80;;;2.80;;
62790;SDS011;48830;53.426;10.300;2023-02-28T10:22:18;4.28;;;2.65;;
62790;SDS011;48830;53.426;10.300;2023-02-28T10:24:52;4.25;;;2.58;;
62790;SDS011;48830;53.426;10.300;2023-02-28T10:29:51;3.92;;;2.30;;
62790;SDS011;48830;53.426;10.300;2023-02-28T10:32:19;4.93;;;2.58;;
62790;SDS011;48830;53.426;10.300;2023-02-28T10:34:57;3.35;;;2.20;;
62790;SDS011;48830;53.426;10.300;2023-02-28T10:37:26;3.15;;;1.83;;
62790;SDS011;48830;53.426;10.300;2023-02-28T10:39:53;3.13;;;1.63;;
62790;SDS011;48830;53.426;10.300;2023-02-28T10:42:23;4.05;;;1.60;;
62790;SDS011;48830;53.426;10.300;2023-02-28T10:45:12;4.78;;;1.60;;
62790;SDS011;48830;53.426;10.300;2023-02-28T10:47:58;2.97;;;1.52;;
62790;SDS011;48830;53.426;10.300;2023-02-28T10:51:00;1.33;;;1.20;;
62790;SDS011;48830;53.426;10.300;2023-02-28T10:58:24;2.75;;;1.60;;
62790;SDS011;48830;53.426;10.300;2023-02-28T11:00:52;2.00;;;1.20;;
62790;SDS011;48830;53.426;10.300;2023-02-28T11:03:28;2.90;;;1.52;;
62790;SDS011;48830;53.426;10.300;2023-02-28T11:05:55;2.53;;;1.40;;
62790;SDS011;48830;53.426;10.300;2023-02-28T11:08:22;5.82;;;1.75;;
62790;SDS011;48830;53.426;10.300;2023-02-28T11:10:53;3.78;;;1.60;;
62790;SDS011;48830;53.426;10.300;2023-02-28T11:13:21;2.15;;;1.38;;
62790;SDS011;48830;53.426;10.300;2023-02-28T11:15:53;1.95;;;1.42;;
62790;SDS011;48830;53.426;10.300;2023-02-28T11:19:04;4.47;;;1.73;;
62790;SDS011;48830;53.426;10.300;2023-02-28T11:21:21;3.17;;;1.80;;
62790;SDS011;48830;53.426;10.300;2023-02-28T11:23:52;3.70;;;1.70;;
62790;SDS011;48830;53.426;10.300;2023-02-28T11:26:35;2.95;;;1.80;;
62790;SDS011;48830;53.426;10.300;2023-02-28T11:31:41;3.80;;;1.80;;
62790;SDS011;48830;53.426;10.300;2023-02-28T11:34:23;3.25;;;1.70;;
62790;SDS011;48830;53.426;10.300;2023-02-28T11:36:51;3.78;;;1.90;;
62790;SDS011;48830;53.426;10.300;2023-02-28T11:39:18;3.63;;;1.80;;
62790;SDS011;48830;53.426;10.300;2023-02-28T11:45:16;2.92;;;1.60;;
62790;SDS011;48830;53.426;10.300;2023-02-28T11:52:58;3.47;;;1.70;;
62790;SDS011;48830;53.426;10.300;2023-02-28T11:55:35;4.13;;;2.00;;
62790;SDS011;48830;53.426;10.300;2023-02-28T12:00:40;3.47;;;1.80;;
62790;SDS011;48830;53.426;10.300;2023-02-28T12:05:44;4.20;;;1.88;;
62790;SDS011;48830;53.426;10.300;2023-02-28T12:08:22;3.70;;;1.60;;
62790;SDS011;48830;53.426;10.300;2023-02-28T12:27:38;5.70;;;2.05;;
62790;SDS011;48830;53.426;10.300;2023-02-28T12:32:47;3.25;;;1.83;;
62790;SDS011;48830;53.426;10.300;2023-02-28T12:35:19;3.35;;;1.83;;
62790;SDS011;48830;53.426;10.300;2023-02-28T12:38:02;4.53;;;1.95;;
62790;SDS011;48830;53.426;10.300;2023-02-28T12:43:19;3.47;;;2.13;;
62790;SDS011;48830;53.426;10.300;2023-02-28T12:45:56;2.70;;;1.70;;
62790;SDS011;48830;53.426;10.300;2023-02-28T12:48:50;3.65;;;2.00;;
62790;SDS011;48830;53.426;10.300;2023-02-28T12:51:21;3.33;;;1.90;;
62790;SDS011;48830;53.426;10.300;2023-02-28T12:54:10;3.25;;;1.80;;
62790;SDS011;48830;53.426;10.300;2023-02-28T12:56:45;3.92;;;1.88;;
62790;SDS011;48830;53.426;10.300;2023-02-28T12:59:21;2.58;;;1.70;;
62790;SDS011;48830;53.426;10.300;2023-02-28T13:07:46;2.90;;;1.80;;
62790;SDS011;48830;53.426;10.300;2023-02-28T13:10:23;2.67;;;1.77;;
62790;SDS011;48830;53.426;10.300;2023-02-28T13:12:50;3.92;;;2.03;;
62790;SDS011;48830;53.426;10.300;2023-02-28T13:15:27;4.30;;;2.10;;
62790;SDS011;48830;53.426;10.300;2023-02-28T13:17:54;4.07;;;2.38;;
62790;SDS011;48830;53.426;10.300;2023-02-28T13:20:27;4.68;;;2.17;;
62790;SDS011;48830;53.426;10.300;2023-02-28T13:22:58;3.25;;;1.98;;
62790;SDS011;48830;53.426;10.300;2023-02-28T13:28:10;3.25;;;1.98;;
62790;SDS011;48830;53.426;10.300;2023-02-28T13:35:51;2.70;;;1.90;;
62790;SDS011;48830;53.426;10.300;2023-02-28T13:38:32;3.78;;;2.30;;
62790;SDS011;48830;53.426;10.300;2023-02-28T13:46:35;4.13;;;2.10;;
62790;SDS011;48830;53.426;10.300;2023-02-28T13:57:06;4.43;;;2.20;;
62790;SDS011;48830;53.426;10.300;2023-02-28T13:59:43;4.50;;;2.25;;
62790;SDS011;48830;53.426;10.300;2023-02-28T14:05:27;3.30;;;2.10;;
62790;SDS011;48830;53.426;10.300;2023-02-28T14:07:58;5.07;;;1.90;;
62790;SDS011;48830;53.426;10.300;2023-02-28T14:10:37;3.90;;;2.15;;
62790;SDS011;48830;53.426;10.300;2023-02-28T14:15:48;3.85;;;2.20;;
62790;SDS011;48830;53.426;10.300;2023-02-28T14:20:49;4.55;;;2.30;;
62790;SDS011;48830;53.426;10.300;2023-02-28T14:23:42;5.88;;;2.30;;
62790;SDS011;48830;53.426;10.300;2023-02-28T14:29:30;3.47;;;2.17;;
62790;SDS011;48830;53.426;10.300;2023-02-28T14:38:05;4.35;;;2.25;;
62790;SDS011;48830;53.426;10.300;2023-02-28T14:40:33;4.88;;;2.50;;
62790;SDS011;48830;53.426;10.300;2023-02-28T14:43:01;4.70;;;2.40;;
62790;SDS011;48830;53.426;10.300;2023-02-28T14:45:29;4.80;;;2.65;;
62790;SDS011;48830;53.426;10.300;2023-02-28T14:47:57;4.95;;;2.28;;
62790;SDS011;48830;53.426;10.300;2023-02-28T14:50:26;4.35;;;2.63;;
62790;SDS011;48830;53.426;10.300;2023-02-28T14:52:55;4.85;;;2.03;;
62790;SDS011;48830;53.426;10.300;2023-02-28T14:55:24;3.42;;;2.22;;
62790;SDS011;48830;53.426;10.300;2023-02-28T14:57:55;3.58;;;2.15;;
62790;SDS011;48830;53.426;10.300;2023-02-28T15:00:24;4.47;;;2.50;;
62790;SDS011;48830;53.426;10.300;2023-02-28T15:02:58;3.60;;;2.17;;
62790;SDS011;48830;53.426;10.300;2023-02-28T15:08:12;4.63;;;2.28;;
62790;SDS011;48830;53.426;10.300;2023-02-28T15:10:50;3.35;;;2.05;;
62790;SDS011;48830;53.426;10.300;2023-02-28T15:13:16;4.13;;;2.00;;
62790;SDS011;48830;53.426;10.300;2023-02-28T15:20:50;3.10;;;1.88;;
62790;SDS011;48830;53.426;10.300;2023-02-28T15:23:16;3.72;;;2.03;;
62790;SDS011;48830;53.426;10.300;2023-02-28T15:25:43;3.00;;;1.80;;
62790;SDS011;48830;53.426;10.300;2023-02-28T15:28:11;2.63;;;1.80;;
62790;SDS011;48830;53.426;10.300;2023-02-28T15:30:49;3.53;;;2.03;;
62790;SDS011;48830;53.426;10.300;2023-02-28T15:35:41;3.15;;;1.77;;
62790;SDS011;48830;53.426;10.300;2023-02-28T15:38:14;3.00;;;2.05;;
62790;SDS011;48830;53.426;10.300;2023-02-28T15:40:41;2.25;;;1.63;;
62790;SDS011;48830;53.426;10.300;2023-02-28T15:43:14;5.03;;;2.22;;
62790;SDS011;48830;53.426;10.300;2023-02-28T15:46:03;2.70;;;1.65;;
62790;SDS011;48830;53.426;10.300;2023-02-28T15:48:51;3.15;;;1.73;;
62790;SDS011;48830;53.426;10.300;2023-02-28T15:51:37;3.33;;;1.67;;
62790;SDS011;48830;53.426;10.300;2023-02-28T15:54:07;2.58;;;1.65;;
62790;SDS011;48830;53.426;10.300;2023-02-28T15:56:38;2.97;;;1.90;;
62790;SDS011;48830;53.426;10.300;2023-02-28T15:59:12;3.83;;;1.80;;
62790;SDS011;48830;53.426;10.300;2023-02-28T16:01:42;4.93;;;1.90;;
62790;SDS011;48830;53.426;10.300;2023-02-28T16:04:17;2.60;;;1.80;;
62790;SDS011;48830;53.426;10.300;2023-02-28T16:06:44;3.67;;;1.90;;
62790;SDS011;48830;53.426;10.300;2023-02-28T16:09:26;3.00;;;1.70;;
62790;SDS011;48830;53.426;10.300;2023-02-28T16:11:53;3.42;;;1.70;;
62790;SDS011;48830;53.426;10.300;2023-02-28T16:14:22;2.60;;;1.70;;
62790;SDS011;48830;53.426;10.300;2023-02-28T16:16:53;4.80;;;2.10;;
62790;SDS011;48830;53.426;10.300;2023-02-28T16:19:20;4.07;;;1.88;;
62790;SDS011;48830;53.426;10.300;2023-02-28T16:21:46;4.13;;;2.00;;
62790;SDS011;48830;53.426;10.300;2023-02-28T16:24:13;1.98;;;1.60;;
62790;SDS011;48830;53.426;10.300;2023-02-28T16:26:44;3.17;;;1.70;;
62790;SDS011;48830;53.426;10.300;2023-02-28T16:29:19;2.95;;;1.80;;
62790;SDS011;48830;53.426;10.300;2023-02-28T16:31:51;4.13;;;1.90;;
62790;SDS011;48830;53.426;10.300;2023-02-28T16:34:16;3.35;;;1.80;;
62790;SDS011;48830;53.426;10.300;2023-02-28T16:36:42;4.00;;;2.20;;
62790;SDS011;48830;53.426;10.300;2023-02-28T16:39:07;3.80;;;2.15;;
62790;SDS011;48830;53.426;10.300;2023-02-28T16:41:32;3.72;;;2.30;;
62790;SDS011;48830;53.426;10.300;2023-02-28T16:43:59;3.92;;;2.20;;
62790;SDS011;48830;53.426;10.300;2023-02-28T16:46:30;4.00;;;2.22;;
62790;SDS011;48830;53.426;10.300;2023-02-28T16:48:59;5.25;;;2.58;;
62790;SDS011;48830;53.426;10.300;2023-02-28T16:51:25;4.22;;;2.50;;
62790;SDS011;48830;53.426;10.300;2023-02-28T16:53:50;3.80;;;2.30;;
62790;SDS011;48830;53.426;10.300;2023-02-28T16:56:19;5.30;;;2.67;;
62790;SDS011;48830;53.426;10.300;2023-02-28T16:58:47;5.33;;;2.33;;
62790;SDS011;48830;53.426;10.300;2023-02-28T17:01:14;4.80;;;2.17;;
62790;SDS011;48830;53.426;10.300;2023-02-28T17:03:40;4.77;;;1.97;;
62790;SDS011;48830;53.426;10.300;2023-02-28T17:06:17;2.67;;;1.70;;
62790;SDS011;48830;53.426;10.300;2023-02-28T17:08:49;3.77;;;1.70;;
62790;SDS011;48830;53.426;10.300;2023-02-28T17:11:15;5.80;;;1.77;;
62790;SDS011;48830;53.426;10.300;2023-02-28T17:13:41;5.03;;;1.73;;
62790;SDS011;48830;53.426;10.300;2023-02-28T17:16:11;3.33;;;1.73;;